Arden, New York
Current Conditions -  °F | °C
As of 3:45 PM on Monday 26 Jan 2015 (Local Time) from KSWF Reporting Station
Light Snow Light Snow  
Wind Chill:   Ceiling: 2500
Heat Index: 18°   Visibility: 2.5mi
Dew Point: 16°   Wind: 9mph
Humidity: 93%   Direction: 40°NE
Pressure: 29.92"   Gusts: NA
Location:  41.27°N, 74.15°W
Report Text: KSWF 262045Z 04008KT 2 1/2SM -SN BR SCT015 OVC025 M08/M09 A2992
Loading
Personal Weather Stations






























Interactive Weather Map New forecast layout! Learn more

10-Day Weather Forecast

Advertisements
Track Severe Weather on mobile